sensor_id;sensor_type;location;lat;lon;timestamp;P1;durP1;ratioP1;P2;durP2;ratioP2
14060;SDS011;7105;43.616;1.434;2023-05-21T00:00:43;7.77;;;6.13;;
14060;SDS011;7105;43.616;1.434;2023-05-21T00:03:09;10.77;;;6.13;;
14060;SDS011;7105;43.616;1.434;2023-05-21T00:05:41;7.97;;;6.00;;
14060;SDS011;7105;43.616;1.434;2023-05-21T00:08:08;10.53;;;5.90;;
14060;SDS011;7105;43.616;1.434;2023-05-21T00:10:34;8.80;;;6.23;;
14060;SDS011;7105;43.616;1.434;2023-05-21T00:12:59;10.23;;;6.60;;
14060;SDS011;7105;43.616;1.434;2023-05-21T00:15:25;8.83;;;6.43;;
14060;SDS011;7105;43.616;1.434;2023-05-21T00:17:51;7.83;;;6.47;;
14060;SDS011;7105;43.616;1.434;2023-05-21T00:20:17;10.17;;;6.30;;
14060;SDS011;7105;43.616;1.434;2023-05-21T00:22:42;8.63;;;6.70;;
14060;SDS011;7105;43.616;1.434;2023-05-21T00:25:08;10.63;;;6.67;;
14060;SDS011;7105;43.616;1.434;2023-05-21T00:27:35;11.43;;;6.67;;
14060;SDS011;7105;43.616;1.434;2023-05-21T00:30:01;10.53;;;6.83;;
14060;SDS011;7105;43.616;1.434;2023-05-21T00:32:30;8.40;;;6.33;;
14060;SDS011;7105;43.616;1.434;2023-05-21T00:34:56;8.70;;;6.10;;
14060;SDS011;7105;43.616;1.434;2023-05-21T00:37:22;9.60;;;6.80;;
14060;SDS011;7105;43.616;1.434;2023-05-21T00:39:48;7.43;;;6.00;;
14060;SDS011;7105;43.616;1.434;2023-05-21T00:42:15;9.77;;;6.47;;
14060;SDS011;7105;43.616;1.434;2023-05-21T00:44:42;10.07;;;6.67;;
14060;SDS011;7105;43.616;1.434;2023-05-21T00:47:09;9.87;;;6.80;;
14060;SDS011;7105;43.616;1.434;2023-05-21T00:49:36;11.20;;;6.17;;
14060;SDS011;7105;43.616;1.434;2023-05-21T00:52:02;9.80;;;6.40;;
14060;SDS011;7105;43.616;1.434;2023-05-21T00:54:29;11.33;;;7.10;;
14060;SDS011;7105;43.616;1.434;2023-05-21T00:56:55;8.93;;;6.47;;
14060;SDS011;7105;43.616;1.434;2023-05-21T00:59:22;10.47;;;6.43;;
14060;SDS011;7105;43.616;1.434;2023-05-21T01:01:48;8.50;;;6.20;;
14060;SDS011;7105;43.616;1.434;2023-05-21T01:04:23;10.07;;;6.67;;
14060;SDS011;7105;43.616;1.434;2023-05-21T01:06:49;8.10;;;6.37;;
14060;SDS011;7105;43.616;1.434;2023-05-21T01:09:17;8.83;;;6.47;;
14060;SDS011;7105;43.616;1.434;2023-05-21T01:11:45;6.80;;;6.10;;
14060;SDS011;7105;43.616;1.434;2023-05-21T01:14:14;10.47;;;6.97;;
14060;SDS011;7105;43.616;1.434;2023-05-21T01:16:41;8.83;;;6.20;;
14060;SDS011;7105;43.616;1.434;2023-05-21T01:19:16;7.07;;;6.37;;
14060;SDS011;7105;43.616;1.434;2023-05-21T01:21:44;8.83;;;6.83;;
14060;SDS011;7105;43.616;1.434;2023-05-21T01:24:13;11.33;;;7.30;;
14060;SDS011;7105;43.616;1.434;2023-05-21T01:26:39;8.60;;;7.03;;
14060;SDS011;7105;43.616;1.434;2023-05-21T01:29:08;9.20;;;6.60;;
14060;SDS011;7105;43.616;1.434;2023-05-21T01:31:47;7.27;;;6.47;;
14060;SDS011;7105;43.616;1.434;2023-05-21T01:37:24;12.40;;;7.20;;
14060;SDS011;7105;43.616;1.434;2023-05-21T01:43:06;9.97;;;6.90;;
14060;SDS011;7105;43.616;1.434;2023-05-21T01:45:32;12.53;;;7.47;;
14060;SDS011;7105;43.616;1.434;2023-05-21T01:48:02;11.03;;;6.60;;
14060;SDS011;7105;43.616;1.434;2023-05-21T01:50:30;9.93;;;7.23;;
14060;SDS011;7105;43.616;1.434;2023-05-21T01:52:56;10.43;;;6.43;;
14060;SDS011;7105;43.616;1.434;2023-05-21T01:55:22;8.50;;;7.00;;
14060;SDS011;7105;43.616;1.434;2023-05-21T01:57:49;10.43;;;6.90;;
14060;SDS011;7105;43.616;1.434;2023-05-21T02:00:16;11.00;;;6.83;;
14060;SDS011;7105;43.616;1.434;2023-05-21T02:02:44;9.50;;;6.80;;
14060;SDS011;7105;43.616;1.434;2023-05-21T02:05:09;7.73;;;6.77;;
14060;SDS011;7105;43.616;1.434;2023-05-21T02:07:35;9.17;;;7.47;;
14060;SDS011;7105;43.616;1.434;2023-05-21T02:10:01;9.03;;;6.57;;
14060;SDS011;7105;43.616;1.434;2023-05-21T02:12:27;8.90;;;6.93;;
14060;SDS011;7105;43.616;1.434;2023-05-21T02:14:53;8.77;;;6.90;;
14060;SDS011;7105;43.616;1.434;2023-05-21T02:17:20;10.97;;;6.43;;
14060;SDS011;7105;43.616;1.434;2023-05-21T02:19:48;9.00;;;6.90;;
14060;SDS011;7105;43.616;1.434;2023-05-21T02:22:14;9.57;;;6.90;;
14060;SDS011;7105;43.616;1.434;2023-05-21T02:24:40;11.63;;;7.80;;
14060;SDS011;7105;43.616;1.434;2023-05-21T02:27:06;8.20;;;6.50;;
14060;SDS011;7105;43.616;1.434;2023-05-21T02:29:35;9.33;;;7.17;;
14060;SDS011;7105;43.616;1.434;2023-05-21T02:32:01;8.90;;;6.93;;
14060;SDS011;7105;43.616;1.434;2023-05-21T02:34:26;9.03;;;6.90;;
14060;SDS011;7105;43.616;1.434;2023-05-21T02:36:56;10.57;;;7.40;;
14060;SDS011;7105;43.616;1.434;2023-05-21T02:39:22;8.03;;;7.03;;
14060;SDS011;7105;43.616;1.434;2023-05-21T02:41:48;8.40;;;6.87;;
14060;SDS011;7105;43.616;1.434;2023-05-21T02:44:14;10.73;;;7.00;;
14060;SDS011;7105;43.616;1.434;2023-05-21T02:46:40;11.20;;;6.70;;
14060;SDS011;7105;43.616;1.434;2023-05-21T02:49:05;10.80;;;6.70;;
14060;SDS011;7105;43.616;1.434;2023-05-21T02:51:31;10.57;;;7.13;;
14060;SDS011;7105;43.616;1.434;2023-05-21T02:53:56;11.47;;;7.23;;
14060;SDS011;7105;43.616;1.434;2023-05-21T02:56:22;9.03;;;7.43;;
14060;SDS011;7105;43.616;1.434;2023-05-21T02:58:49;9.87;;;7.30;;
14060;SDS011;7105;43.616;1.434;2023-05-21T03:01:16;9.77;;;7.00;;
14060;SDS011;7105;43.616;1.434;2023-05-21T03:03:41;11.80;;;6.97;;
14060;SDS011;7105;43.616;1.434;2023-05-21T03:06:07;10.03;;;7.17;;
14060;SDS011;7105;43.616;1.434;2023-05-21T03:08:34;9.33;;;6.87;;
14060;SDS011;7105;43.616;1.434;2023-05-21T03:11:01;10.20;;;6.67;;
14060;SDS011;7105;43.616;1.434;2023-05-21T03:13:26;10.87;;;7.33;;
14060;SDS011;7105;43.616;1.434;2023-05-21T03:15:52;10.13;;;7.07;;
14060;SDS011;7105;43.616;1.434;2023-05-21T03:18:21;12.03;;;7.30;;
14060;SDS011;7105;43.616;1.434;2023-05-21T03:20:47;10.00;;;6.80;;
14060;SDS011;7105;43.616;1.434;2023-05-21T03:23:13;10.33;;;7.37;;
14060;SDS011;7105;43.616;1.434;2023-05-21T03:25:40;11.17;;;7.03;;
14060;SDS011;7105;43.616;1.434;2023-05-21T03:28:05;13.17;;;7.80;;
14060;SDS011;7105;43.616;1.434;2023-05-21T03:30:31;11.57;;;7.03;;
14060;SDS011;7105;43.616;1.434;2023-05-21T03:32:57;10.20;;;7.47;;
14060;SDS011;7105;43.616;1.434;2023-05-21T03:35:24;9.67;;;7.27;;
14060;SDS011;7105;43.616;1.434;2023-05-21T03:37:50;9.60;;;7.23;;
14060;SDS011;7105;43.616;1.434;2023-05-21T03:40:15;11.30;;;7.37;;
14060;SDS011;7105;43.616;1.434;2023-05-21T03:42:41;12.20;;;7.47;;
14060;SDS011;7105;43.616;1.434;2023-05-21T03:45:07;10.67;;;7.83;;
14060;SDS011;7105;43.616;1.434;2023-05-21T03:47:33;10.20;;;7.77;;
14060;SDS011;7105;43.616;1.434;2023-05-21T03:50:00;11.57;;;7.93;;
14060;SDS011;7105;43.616;1.434;2023-05-21T03:52:26;10.37;;;7.93;;
14060;SDS011;7105;43.616;1.434;2023-05-21T03:54:52;10.17;;;7.73;;
14060;SDS011;7105;43.616;1.434;2023-05-21T03:57:17;11.27;;;7.47;;
14060;SDS011;7105;43.616;1.434;2023-05-21T03:59:43;11.47;;;7.90;;
14060;SDS011;7105;43.616;1.434;2023-05-21T04:02:09;9.73;;;7.87;;
14060;SDS011;7105;43.616;1.434;2023-05-21T04:04:35;10.07;;;8.60;;
14060;SDS011;7105;43.616;1.434;2023-05-21T04:07:01;12.57;;;7.67;;
14060;SDS011;7105;43.616;1.434;2023-05-21T04:09:28;12.37;;;8.13;;
14060;SDS011;7105;43.616;1.434;2023-05-21T04:11:54;12.70;;;8.30;;
14060;SDS011;7105;43.616;1.434;2023-05-21T04:14:21;15.13;;;8.00;;
14060;SDS011;7105;43.616;1.434;2023-05-21T04:16:47;12.33;;;8.50;;
14060;SDS011;7105;43.616;1.434;2023-05-21T04:19:13;12.53;;;8.47;;
14060;SDS011;7105;43.616;1.434;2023-05-21T04:21:39;11.47;;;8.53;;
14060;SDS011;7105;43.616;1.434;2023-05-21T04:24:04;10.20;;;8.13;;
14060;SDS011;7105;43.616;1.434;2023-05-21T04:26:30;12.83;;;8.63;;
14060;SDS011;7105;43.616;1.434;2023-05-21T04:28:58;13.50;;;8.87;;
14060;SDS011;7105;43.616;1.434;2023-05-21T04:31:23;11.63;;;8.30;;
14060;SDS011;7105;43.616;1.434;2023-05-21T04:33:49;12.60;;;8.40;;
14060;SDS011;7105;43.616;1.434;2023-05-21T04:36:15;13.60;;;8.87;;
14060;SDS011;7105;43.616;1.434;2023-05-21T04:38:41;12.40;;;8.83;;
14060;SDS011;7105;43.616;1.434;2023-05-21T04:41:07;15.13;;;8.27;;
14060;SDS011;7105;43.616;1.434;2023-05-21T04:43:34;12.40;;;8.47;;
14060;SDS011;7105;43.616;1.434;2023-05-21T04:46:00;12.80;;;8.30;;
14060;SDS011;7105;43.616;1.434;2023-05-21T04:48:26;15.43;;;8.90;;
14060;SDS011;7105;43.616;1.434;2023-05-21T04:50:52;15.63;;;8.87;;
14060;SDS011;7105;43.616;1.434;2023-05-21T04:53:20;13.07;;;8.70;;
14060;SDS011;7105;43.616;1.434;2023-05-21T04:55:46;10.43;;;8.53;;
14060;SDS011;7105;43.616;1.434;2023-05-21T04:58:12;15.00;;;8.80;;
14060;SDS011;7105;43.616;1.434;2023-05-21T05:00:38;11.67;;;9.03;;
14060;SDS011;7105;43.616;1.434;2023-05-21T05:03:06;15.47;;;9.23;;
14060;SDS011;7105;43.616;1.434;2023-05-21T05:05:31;15.13;;;9.40;;
14060;SDS011;7105;43.616;1.434;2023-05-21T05:07:57;13.00;;;9.83;;
14060;SDS011;7105;43.616;1.434;2023-05-21T05:10:23;14.63;;;9.40;;
14060;SDS011;7105;43.616;1.434;2023-05-21T05:12:48;13.70;;;9.73;;
14060;SDS011;7105;43.616;1.434;2023-05-21T05:15:14;14.67;;;9.60;;
14060;SDS011;7105;43.616;1.434;2023-05-21T05:17:40;16.60;;;10.47;;
14060;SDS011;7105;43.616;1.434;2023-05-21T05:20:06;10.97;;;8.53;;
14060;SDS011;7105;43.616;1.434;2023-05-21T05:22:32;13.80;;;10.27;;
14060;SDS011;7105;43.616;1.434;2023-05-21T05:24:58;13.73;;;9.97;;
14060;SDS011;7105;43.616;1.434;2023-05-21T05:27:23;15.37;;;10.07;;
14060;SDS011;7105;43.616;1.434;2023-05-21T05:29:49;14.23;;;10.03;;
14060;SDS011;7105;43.616;1.434;2023-05-21T05:32:15;10.97;;;9.30;;
14060;SDS011;7105;43.616;1.434;2023-05-21T05:34:41;17.50;;;9.87;;
14060;SDS011;7105;43.616;1.434;2023-05-21T05:37:07;14.67;;;10.10;;
14060;SDS011;7105;43.616;1.434;2023-05-21T05:39:32;14.70;;;10.17;;
14060;SDS011;7105;43.616;1.434;2023-05-21T05:41:58;13.70;;;9.47;;
14060;SDS011;7105;43.616;1.434;2023-05-21T05:44:23;13.20;;;9.87;;
14060;SDS011;7105;43.616;1.434;2023-05-21T05:46:49;11.10;;;8.40;;
14060;SDS011;7105;43.616;1.434;2023-05-21T05:49:15;11.73;;;9.40;;
14060;SDS011;7105;43.616;1.434;2023-05-21T05:51:41;17.50;;;9.83;;
14060;SDS011;7105;43.616;1.434;2023-05-21T05:54:06;12.13;;;9.33;;
14060;SDS011;7105;43.616;1.434;2023-05-21T05:56:32;13.07;;;9.43;;
14060;SDS011;7105;43.616;1.434;2023-05-21T05:58:58;15.87;;;9.60;;
14060;SDS011;7105;43.616;1.434;2023-05-21T06:01:23;11.27;;;9.90;;
14060;SDS011;7105;43.616;1.434;2023-05-21T06:03:50;13.00;;;9.53;;
14060;SDS011;7105;43.616;1.434;2023-05-21T06:06:16;18.00;;;10.40;;
14060;SDS011;7105;43.616;1.434;2023-05-21T06:08:42;12.20;;;9.37;;
14060;SDS011;7105;43.616;1.434;2023-05-21T06:11:08;12.53;;;9.23;;
14060;SDS011;7105;43.616;1.434;2023-05-21T06:13:35;17.40;;;9.73;;
14060;SDS011;7105;43.616;1.434;2023-05-21T06:16:01;15.93;;;9.53;;
14060;SDS011;7105;43.616;1.434;2023-05-21T06:18:28;15.83;;;10.60;;
14060;SDS011;7105;43.616;1.434;2023-05-21T06:20:53;15.87;;;10.23;;
14060;SDS011;7105;43.616;1.434;2023-05-21T06:23:19;14.40;;;9.97;;
14060;SDS011;7105;43.616;1.434;2023-05-21T06:25:45;11.43;;;9.50;;
14060;SDS011;7105;43.616;1.434;2023-05-21T06:28:10;12.20;;;10.30;;
14060;SDS011;7105;43.616;1.434;2023-05-21T06:30:36;15.80;;;10.20;;
14060;SDS011;7105;43.616;1.434;2023-05-21T06:33:02;16.37;;;10.13;;
14060;SDS011;7105;43.616;1.434;2023-05-21T06:35:27;14.50;;;9.67;;
14060;SDS011;7105;43.616;1.434;2023-05-21T06:37:53;14.70;;;10.37;;
14060;SDS011;7105;43.616;1.434;2023-05-21T06:40:19;14.17;;;10.37;;
14060;SDS011;7105;43.616;1.434;2023-05-21T06:42:45;11.83;;;9.27;;
14060;SDS011;7105;43.616;1.434;2023-05-21T06:45:11;14.07;;;10.00;;
14060;SDS011;7105;43.616;1.434;2023-05-21T06:47:36;11.83;;;9.60;;
14060;SDS011;7105;43.616;1.434;2023-05-21T06:50:02;14.90;;;10.00;;
14060;SDS011;7105;43.616;1.434;2023-05-21T06:52:28;11.23;;;9.47;;
14060;SDS011;7105;43.616;1.434;2023-05-21T06:54:55;15.57;;;8.90;;
14060;SDS011;7105;43.616;1.434;2023-05-21T06:57:21;15.43;;;9.87;;
14060;SDS011;7105;43.616;1.434;2023-05-21T06:59:47;13.77;;;9.53;;
14060;SDS011;7105;43.616;1.434;2023-05-21T07:02:12;12.37;;;9.13;;
14060;SDS011;7105;43.616;1.434;2023-05-21T07:04:38;13.20;;;9.50;;
14060;SDS011;7105;43.616;1.434;2023-05-21T07:07:04;15.07;;;10.37;;
14060;SDS011;7105;43.616;1.434;2023-05-21T07:09:29;12.60;;;9.17;;
14060;SDS011;7105;43.616;1.434;2023-05-21T07:11:55;13.97;;;9.93;;
14060;SDS011;7105;43.616;1.434;2023-05-21T07:14:22;15.33;;;10.10;;
14060;SDS011;7105;43.616;1.434;2023-05-21T07:16:49;13.13;;;10.13;;
14060;SDS011;7105;43.616;1.434;2023-05-21T07:19:14;12.73;;;9.87;;
14060;SDS011;7105;43.616;1.434;2023-05-21T07:21:40;14.63;;;9.93;;
14060;SDS011;7105;43.616;1.434;2023-05-21T07:24:06;16.40;;;9.90;;
14060;SDS011;7105;43.616;1.434;2023-05-21T07:26:31;16.33;;;9.30;;
14060;SDS011;7105;43.616;1.434;2023-05-21T07:28:57;16.80;;;9.37;;
14060;SDS011;7105;43.616;1.434;2023-05-21T07:31:23;13.70;;;10.07;;
14060;SDS011;7105;43.616;1.434;2023-05-21T07:33:49;12.30;;;9.77;;
14060;SDS011;7105;43.616;1.434;2023-05-21T07:36:15;15.50;;;10.37;;
14060;SDS011;7105;43.616;1.434;2023-05-21T07:38:40;14.93;;;9.50;;
14060;SDS011;7105;43.616;1.434;2023-05-21T07:41:07;18.80;;;10.33;;
14060;SDS011;7105;43.616;1.434;2023-05-21T07:43:34;13.90;;;9.63;;
14060;SDS011;7105;43.616;1.434;2023-05-21T07:46:00;14.43;;;9.47;;
14060;SDS011;7105;43.616;1.434;2023-05-21T07:48:25;13.73;;;9.50;;
14060;SDS011;7105;43.616;1.434;2023-05-21T07:50:51;12.53;;;9.90;;
14060;SDS011;7105;43.616;1.434;2023-05-21T07:53:17;14.20;;;9.57;;
14060;SDS011;7105;43.616;1.434;2023-05-21T07:55:43;16.10;;;10.20;;
14060;SDS011;7105;43.616;1.434;2023-05-21T07:58:13;13.27;;;10.03;;
14060;SDS011;7105;43.616;1.434;2023-05-21T08:00:43;13.53;;;9.37;;
14060;SDS011;7105;43.616;1.434;2023-05-21T08:03:12;13.73;;;8.87;;
14060;SDS011;7105;43.616;1.434;2023-05-21T08:05:40;14.77;;;10.03;;
14060;SDS011;7105;43.616;1.434;2023-05-21T08:08:08;13.23;;;9.30;;
14060;SDS011;7105;43.616;1.434;2023-05-21T08:10:34;15.37;;;9.37;;
14060;SDS011;7105;43.616;1.434;2023-05-21T08:13:01;11.60;;;9.10;;
14060;SDS011;7105;43.616;1.434;2023-05-21T08:15:26;15.20;;;9.60;;
14060;SDS011;7105;43.616;1.434;2023-05-21T08:17:52;11.27;;;8.60;;
14060;SDS011;7105;43.616;1.434;2023-05-21T08:20:18;14.57;;;9.40;;
14060;SDS011;7105;43.616;1.434;2023-05-21T08:22:44;12.43;;;9.47;;
14060;SDS011;7105;43.616;1.434;2023-05-21T08:25:10;15.40;;;9.60;;
14060;SDS011;7105;43.616;1.434;2023-05-21T08:27:35;11.83;;;9.27;;
14060;SDS011;7105;43.616;1.434;2023-05-21T08:30:02;16.37;;;9.37;;
14060;SDS011;7105;43.616;1.434;2023-05-21T08:32:28;12.17;;;9.07;;
14060;SDS011;7105;43.616;1.434;2023-05-21T08:34:53;15.80;;;9.53;;
14060;SDS011;7105;43.616;1.434;2023-05-21T08:37:20;12.33;;;8.80;;
14060;SDS011;7105;43.616;1.434;2023-05-21T08:39:45;12.23;;;8.77;;
14060;SDS011;7105;43.616;1.434;2023-05-21T08:42:45;15.00;;;8.10;;
14060;SDS011;7105;43.616;1.434;2023-05-21T08:45:11;13.37;;;8.67;;
14060;SDS011;7105;43.616;1.434;2023-05-21T08:47:39;10.43;;;8.47;;
14060;SDS011;7105;43.616;1.434;2023-05-21T08:50:09;12.93;;;8.70;;
14060;SDS011;7105;43.616;1.434;2023-05-21T08:52:37;12.03;;;8.17;;
14060;SDS011;7105;43.616;1.434;2023-05-21T08:55:03;15.67;;;8.50;;
14060;SDS011;7105;43.616;1.434;2023-05-21T08:57:31;11.67;;;7.97;;
14060;SDS011;7105;43.616;1.434;2023-05-21T08:59:57;10.90;;;8.37;;
14060;SDS011;7105;43.616;1.434;2023-05-21T09:02:23;10.70;;;7.57;;
14060;SDS011;7105;43.616;1.434;2023-05-21T09:04:50;10.53;;;8.20;;
14060;SDS011;7105;43.616;1.434;2023-05-21T09:07:21;12.85;;;8.18;;
14060;SDS011;7105;43.616;1.434;2023-05-21T09:09:54;16.38;;;8.30;;
14060;SDS011;7105;43.616;1.434;2023-05-21T09:12:22;10.80;;;7.90;;
14060;SDS011;7105;43.616;1.434;2023-05-21T09:14:49;13.15;;;8.63;;
14060;SDS011;7105;43.616;1.434;2023-05-21T09:17:15;13.82;;;7.95;;
14060;SDS011;7105;43.616;1.434;2023-05-21T09:22:40;10.88;;;8.05;;
14060;SDS011;7105;43.616;1.434;2023-05-21T09:25:06;11.73;;;7.88;;
14060;SDS011;7105;43.616;1.434;2023-05-21T09:27:33;10.10;;;7.78;;
14060;SDS011;7105;43.616;1.434;2023-05-21T09:30:00;11.23;;;8.00;;
14060;SDS011;7105;43.616;1.434;2023-05-21T09:32:33;11.10;;;8.30;;
14060;SDS011;7105;43.616;1.434;2023-05-21T09:35:05;9.63;;;7.43;;
14060;SDS011;7105;43.616;1.434;2023-05-21T09:37:35;9.68;;;7.68;;
14060;SDS011;7105;43.616;1.434;2023-05-21T09:42:39;12.03;;;8.80;;
14060;SDS011;7105;43.616;1.434;2023-05-21T09:45:08;13.02;;;8.98;;
14060;SDS011;7105;43.616;1.434;2023-05-21T09:47:41;13.27;;;9.30;;
14060;SDS011;7105;43.616;1.434;2023-05-21T09:50:11;12.25;;;9.32;;
14060;SDS011;7105;43.616;1.434;2023-05-21T09:52:44;10.57;;;9.05;;
14060;SDS011;7105;43.616;1.434;2023-05-21T09:55:10;12.20;;;9.30;;
14060;SDS011;7105;43.616;1.434;2023-05-21T09:57:40;12.47;;;8.90;;
14060;SDS011;7105;43.616;1.434;2023-05-21T10:00:07;11.33;;;9.27;;
14060;SDS011;7105;43.616;1.434;2023-05-21T10:02:34;13.68;;;8.90;;
14060;SDS011;7105;43.616;1.434;2023-05-21T10:05:01;15.07;;;9.47;;
14060;SDS011;7105;43.616;1.434;2023-05-21T10:07:32;12.27;;;9.07;;
14060;SDS011;7105;43.616;1.434;2023-05-21T10:10:00;10.30;;;9.20;;
14060;SDS011;7105;43.616;1.434;2023-05-21T10:12:28;13.50;;;9.47;;
14060;SDS011;7105;43.616;1.434;2023-05-21T10:14:59;9.97;;;8.93;;
14060;SDS011;7105;43.616;1.434;2023-05-21T10:17:27;13.20;;;9.43;;
14060;SDS011;7105;43.616;1.434;2023-05-21T10:19:58;13.97;;;9.20;;
14060;SDS011;7105;43.616;1.434;2023-05-21T10:22:25;13.13;;;9.13;;
14060;SDS011;7105;43.616;1.434;2023-05-21T10:24:51;13.57;;;9.13;;
14060;SDS011;7105;43.616;1.434;2023-05-21T10:27:17;11.73;;;9.20;;
14060;SDS011;7105;43.616;1.434;2023-05-21T10:29:44;10.67;;;9.57;;
14060;SDS011;7105;43.616;1.434;2023-05-21T10:32:14;11.70;;;9.30;;
14060;SDS011;7105;43.616;1.434;2023-05-21T10:34:42;12.33;;;9.37;;
14060;SDS011;7105;43.616;1.434;2023-05-21T10:37:07;12.87;;;9.33;;
14060;SDS011;7105;43.616;1.434;2023-05-21T10:39:34;11.77;;;9.53;;
14060;SDS011;7105;43.616;1.434;2023-05-21T10:42:17;11.07;;;9.10;;
14060;SDS011;7105;43.616;1.434;2023-05-21T10:53:18;12.37;;;9.60;;
14060;SDS011;7105;43.616;1.434;2023-05-21T10:58:53;11.37;;;9.93;;
14060;SDS011;7105;43.616;1.434;2023-05-21T11:01:21;12.93;;;10.03;;
14060;SDS011;7105;43.616;1.434;2023-05-21T11:03:47;12.17;;;10.20;;
14060;SDS011;7105;43.616;1.434;2023-05-21T11:06:21;12.50;;;10.13;;
14060;SDS011;7105;43.616;1.434;2023-05-21T11:08:49;12.33;;;9.90;;
14060;SDS011;7105;43.616;1.434;2023-05-21T11:11:38;13.67;;;10.33;;
14060;SDS011;7105;43.616;1.434;2023-05-21T11:16:57;13.83;;;9.03;;
14060;SDS011;7105;43.616;1.434;2023-05-21T11:22:28;10.67;;;8.90;;
14060;SDS011;7105;43.616;1.434;2023-05-21T11:24:55;13.93;;;8.90;;
14060;SDS011;7105;43.616;1.434;2023-05-21T11:27:32;8.60;;;7.17;;
14060;SDS011;7105;43.616;1.434;2023-05-21T11:30:02;11.33;;;7.77;;
14060;SDS011;7105;43.616;1.434;2023-05-21T11:32:29;12.07;;;8.97;;
14060;SDS011;7105;43.616;1.434;2023-05-21T11:34:55;17.07;;;10.80;;
14060;SDS011;7105;43.616;1.434;2023-05-21T11:37:26;11.33;;;9.70;;
14060;SDS011;7105;43.616;1.434;2023-05-21T11:39:54;12.73;;;10.90;;
14060;SDS011;7105;43.616;1.434;2023-05-21T11:42:38;11.63;;;10.13;;
14060;SDS011;7105;43.616;1.434;2023-05-21T11:45:06;12.93;;;10.97;;
14060;SDS011;7105;43.616;1.434;2023-05-21T11:47:32;11.23;;;10.07;;
14060;SDS011;7105;43.616;1.434;2023-05-21T11:49:59;12.37;;;11.00;;
14060;SDS011;7105;43.616;1.434;2023-05-21T11:52:29;11.87;;;10.67;;
14060;SDS011;7105;43.616;1.434;2023-05-21T11:54:56;12.63;;;10.10;;
14060;SDS011;7105;43.616;1.434;2023-05-21T11:57:26;14.07;;;10.97;;
14060;SDS011;7105;43.616;1.434;2023-05-21T11:59:55;13.50;;;10.70;;
14060;SDS011;7105;43.616;1.434;2023-05-21T12:02:31;12.63;;;11.10;;
14060;SDS011;7105;43.616;1.434;2023-05-21T12:04:57;13.37;;;11.17;;
14060;SDS011;7105;43.616;1.434;2023-05-21T12:07:25;13.43;;;10.80;;
14060;SDS011;7105;43.616;1.434;2023-05-21T12:09:55;11.63;;;10.23;;
14060;SDS011;7105;43.616;1.434;2023-05-21T12:12:21;14.10;;;11.27;;
14060;SDS011;7105;43.616;1.434;2023-05-21T12:14:49;12.57;;;10.50;;
14060;SDS011;7105;43.616;1.434;2023-05-21T12:17:19;15.50;;;10.60;;
14060;SDS011;7105;43.616;1.434;2023-05-21T12:19:47;13.43;;;9.90;;
14060;SDS011;7105;43.616;1.434;2023-05-21T12:22:14;12.67;;;9.77;;
14060;SDS011;7105;43.616;1.434;2023-05-21T12:24:40;14.97;;;10.63;;
14060;SDS011;7105;43.616;1.434;2023-05-21T12:27:08;13.07;;;10.17;;
14060;SDS011;7105;43.616;1.434;2023-05-21T12:29:40;11.47;;;9.43;;
14060;SDS011;7105;43.616;1.434;2023-05-21T12:32:08;14.77;;;9.63;;
14060;SDS011;7105;43.616;1.434;2023-05-21T12:37:14;12.27;;;10.43;;
14060;SDS011;7105;43.616;1.434;2023-05-21T12:39:46;11.10;;;9.90;;
14060;SDS011;7105;43.616;1.434;2023-05-21T12:42:13;11.47;;;10.27;;
14060;SDS011;7105;43.616;1.434;2023-05-21T12:44:48;12.03;;;10.20;;
14060;SDS011;7105;43.616;1.434;2023-05-21T12:47:16;11.17;;;10.10;;
14060;SDS011;7105;43.616;1.434;2023-05-21T12:49:42;14.18;;;9.70;;
14060;SDS011;7105;43.616;1.434;2023-05-21T12:52:12;13.60;;;10.25;;
14060;SDS011;7105;43.616;1.434;2023-05-21T12:54:39;12.50;;;9.27;;
14060;SDS011;7105;43.616;1.434;2023-05-21T13:04:54;12.20;;;10.38;;
14060;SDS011;7105;43.616;1.434;2023-05-21T13:07:22;16.67;;;11.05;;
14060;SDS011;7105;43.616;1.434;2023-05-21T13:09:49;12.40;;;10.85;;
14060;SDS011;7105;43.616;1.434;2023-05-21T13:12:17;12.88;;;9.82;;
14060;SDS011;7105;43.616;1.434;2023-05-21T13:14:44;13.15;;;11.40;;
14060;SDS011;7105;43.616;1.434;2023-05-21T13:17:10;11.93;;;10.48;;
14060;SDS011;7105;43.616;1.434;2023-05-21T13:19:35;12.75;;;10.77;;
14060;SDS011;7105;43.616;1.434;2023-05-21T13:22:01;13.90;;;10.32;;
14060;SDS011;7105;43.616;1.434;2023-05-21T13:24:27;12.57;;;11.27;;
14060;SDS011;7105;43.616;1.434;2023-05-21T13:26:53;14.60;;;11.05;;
14060;SDS011;7105;43.616;1.434;2023-05-21T13:29:19;12.63;;;11.32;;
14060;SDS011;7105;43.616;1.434;2023-05-21T13:31:44;13.07;;;11.02;;
14060;SDS011;7105;43.616;1.434;2023-05-21T13:34:11;15.88;;;11.95;;
14060;SDS011;7105;43.616;1.434;2023-05-21T13:36:37;16.98;;;12.70;;
14060;SDS011;7105;43.616;1.434;2023-05-21T13:39:03;14.32;;;12.38;;
14060;SDS011;7105;43.616;1.434;2023-05-21T13:41:29;13.77;;;12.13;;
14060;SDS011;7105;43.616;1.434;2023-05-21T13:43:55;12.77;;;10.43;;
14060;SDS011;7105;43.616;1.434;2023-05-21T13:46:21;10.90;;;8.55;;
14060;SDS011;7105;43.616;1.434;2023-05-21T13:48:47;11.73;;;8.38;;
14060;SDS011;7105;43.616;1.434;2023-05-21T13:51:13;9.65;;;6.80;;
14060;SDS011;7105;43.616;1.434;2023-05-21T13:53:38;7.68;;;6.65;;
14060;SDS011;7105;43.616;1.434;2023-05-21T13:56:04;8.32;;;6.60;;
14060;SDS011;7105;43.616;1.434;2023-05-21T13:58:30;7.45;;;5.78;;
14060;SDS011;7105;43.616;1.434;2023-05-21T14:01:00;9.07;;;6.22;;
14060;SDS011;7105;43.616;1.434;2023-05-21T14:03:26;8.15;;;6.30;;
14060;SDS011;7105;43.616;1.434;2023-05-21T14:05:52;7.10;;;6.40;;
14060;SDS011;7105;43.616;1.434;2023-05-21T14:08:19;8.80;;;6.88;;
14060;SDS011;7105;43.616;1.434;2023-05-21T14:10:45;6.72;;;6.03;;
14060;SDS011;7105;43.616;1.434;2023-05-21T14:13:12;6.35;;;5.72;;
14060;SDS011;7105;43.616;1.434;2023-05-21T14:15:37;6.70;;;6.10;;
14060;SDS011;7105;43.616;1.434;2023-05-21T14:18:04;7.97;;;5.65;;
14060;SDS011;7105;43.616;1.434;2023-05-21T14:20:32;8.13;;;5.82;;
14060;SDS011;7105;43.616;1.434;2023-05-21T14:22:58;6.38;;;5.63;;
14060;SDS011;7105;43.616;1.434;2023-05-21T14:25:23;7.22;;;5.43;;
14060;SDS011;7105;43.616;1.434;2023-05-21T14:27:49;7.47;;;5.65;;
14060;SDS011;7105;43.616;1.434;2023-05-21T14:30:15;5.70;;;5.10;;
14060;SDS011;7105;43.616;1.434;2023-05-21T14:32:40;5.35;;;4.85;;
14060;SDS011;7105;43.616;1.434;2023-05-21T14:35:06;6.97;;;6.15;;
14060;SDS011;7105;43.616;1.434;2023-05-21T14:37:32;6.60;;;5.80;;
14060;SDS011;7105;43.616;1.434;2023-05-21T14:39:58;7.03;;;6.30;;
14060;SDS011;7105;43.616;1.434;2023-05-21T14:42:23;6.95;;;6.25;;
14060;SDS011;7105;43.616;1.434;2023-05-21T14:44:49;8.68;;;6.50;;
14060;SDS011;7105;43.616;1.434;2023-05-21T14:47:15;7.90;;;6.05;;
14060;SDS011;7105;43.616;1.434;2023-05-21T14:49:41;6.50;;;5.05;;
14060;SDS011;7105;43.616;1.434;2023-05-21T14:52:08;6.65;;;5.80;;
14060;SDS011;7105;43.616;1.434;2023-05-21T14:54:33;6.72;;;5.20;;
14060;SDS011;7105;43.616;1.434;2023-05-21T14:57:00;5.20;;;4.70;;
14060;SDS011;7105;43.616;1.434;2023-05-21T14:59:25;6.30;;;5.35;;
14060;SDS011;7105;43.616;1.434;2023-05-21T15:01:51;8.65;;;4.88;;
14060;SDS011;7105;43.616;1.434;2023-05-21T15:04:17;4.95;;;4.55;;
14060;SDS011;7105;43.616;1.434;2023-05-21T15:06:42;6.38;;;4.82;;
14060;SDS011;7105;43.616;1.434;2023-05-21T15:09:08;5.50;;;4.90;;
14060;SDS011;7105;43.616;1.434;2023-05-21T15:11:34;6.40;;;5.80;;
14060;SDS011;7105;43.616;1.434;2023-05-21T15:14:00;5.95;;;5.45;;
14060;SDS011;7105;43.616;1.434;2023-05-21T15:16:25;6.82;;;5.18;;
14060;SDS011;7105;43.616;1.434;2023-05-21T15:18:51;6.00;;;5.10;;
14060;SDS011;7105;43.616;1.434;2023-05-21T15:21:18;5.65;;;4.80;;
14060;SDS011;7105;43.616;1.434;2023-05-21T15:23:43;4.85;;;4.28;;
14060;SDS011;7105;43.616;1.434;2023-05-21T15:26:09;4.53;;;4.13;;